Time;durP1;ratioP1;P1;durP2;ratioP2;P2;SDS_P1;SDS_P2;PMS_P1;PMS_P2;Temp;Humidity;BMP_temperature;BMP_pressure;BME280_temperature;BME280_humidity;BME280_pressure;Samples;Min_cycle;Max_cycle;Signal;HPM_P1;HPM_P2
2023/12/01 00:02:07;;;;;;;67.88;25.23;;;0.70;99.90;;;;;;5016222;28;20032;-89
2023/12/01 00:04:32;;;;;;;75.57;23.75;;;0.60;99.90;;;;;;5022071;28;20097;-89
2023/12/01 00:06:58;;;;;;;60.25;21.63;;;0.60;99.90;;;;;;5030926;28;20477;-89
2023/12/01 00:09:24;;;;;;;72.20;23.80;;;0.60;99.90;;;;;;5015381;28;20033;-90
2023/12/01 00:11:49;;;;;;;72.57;24.35;;;0.60;99.90;;;;;;5033889;28;20022;-90
2023/12/01 00:14:15;;;;;;;64.47;23.40;;;0.50;99.90;;;;;;5025258;28;20119;-90
2023/12/01 00:16:40;;;;;;;68.75;23.73;;;0.50;99.90;;;;;;5013499;28;20029;-89
2023/12/01 00:19:06;;;;;;;66.25;23.23;;;0.50;99.90;;;;;;5001829;28;20017;-90
2023/12/01 00:21:32;;;;;;;68.28;23.48;;;0.40;99.90;;;;;;5003380;28;20029;-89
2023/12/01 00:23:57;;;;;;;70.32;24.35;;;0.30;99.90;;;;;;5031650;28;20478;-89
2023/12/01 00:26:23;;;;;;;74.85;23.52;;;0.30;99.90;;;;;;5029526;28;20040;-89
2023/12/01 00:28:48;;;;;;;69.53;24.17;;;0.30;99.90;;;;;;5034901;28;20126;-89
2023/12/01 00:31:14;;;;;;;79.35;25.58;;;0.30;99.90;;;;;;5015433;28;20022;-89
2023/12/01 00:33:40;;;;;;;67.85;23.50;;;0.20;99.90;;;;;;5018162;28;20017;-89
2023/12/01 00:36:06;;;;;;;69.20;22.58;;;0.30;99.90;;;;;;5025274;28;20064;-90
2023/12/01 00:38:32;;;;;;;76.72;23.90;;;0.20;99.90;;;;;;5027173;28;20129;-90
2023/12/01 00:40:57;;;;;;;72.35;22.13;;;0.20;99.90;;;;;;5014260;28;20057;-90
2023/12/01 00:43:24;;;;;;;73.78;25.23;;;0.20;99.90;;;;;;5013502;28;20036;-90
2023/12/01 00:45:49;;;;;;;69.85;20.85;;;0.20;99.90;;;;;;5028683;28;20402;-90
2023/12/01 00:48:15;;;;;;;56.15;19.00;;;0.20;99.90;;;;;;5003061;28;20029;-89
2023/12/01 00:50:40;;;;;;;84.65;22.60;;;0.20;99.90;;;;;;5022256;28;20133;-90
2023/12/01 00:53:06;;;;;;;81.63;22.92;;;0.20;99.90;;;;;;5014215;28;20071;-89
2023/12/01 00:55:31;;;;;;;75.22;23.83;;;0.10;99.90;;;;;;5013436;28;20057;-89
2023/12/01 00:57:57;;;;;;;71.40;21.90;;;0.10;99.90;;;;;;5013538;28;20022;-89
2023/12/01 01:00:23;;;;;;;82.15;23.10;;;0.10;99.90;;;;;;4997638;28;20125;-90
2023/12/01 01:02:53;;;;;;;79.47;21.90;;;0.10;99.90;;;;;;5006438;28;20466;-89
2023/12/01 01:05:18;;;;;;;70.07;20.45;;;0.10;99.90;;;;;;5013002;28;20033;-89
2023/12/01 01:07:44;;;;;;;78.88;23.83;;;0.00;99.90;;;;;;5018712;28;20049;-89
2023/12/01 01:10:10;;;;;;;72.68;20.38;;;0.00;99.90;;;;;;5000890;28;20033;-89
2023/12/01 01:12:35;;;;;;;76.72;22.50;;;0.00;99.90;;;;;;5016139;28;20022;-89
2023/12/01 01:15:04;;;;;;;71.57;21.38;;;0.00;99.90;;;;;;5016547;28;20026;-90
2023/12/01 01:17:33;;;;;;;73.15;21.25;;;0.00;99.90;;;;;;5016316;28;20026;-89
2023/12/01 01:20:03;;;;;;;69.53;20.48;;;0.00;99.90;;;;;;5014482;28;20033;-90
2023/12/01 01:22:29;;;;;;;80.05;21.50;;;0.00;99.90;;;;;;5013099;28;20386;-90
2023/12/01 01:24:55;;;;;;;82.95;23.52;;;-0.10;99.90;;;;;;5032406;28;20030;-90
2023/12/01 01:27:21;;;;;;;90.32;22.33;;;-0.10;99.90;;;;;;4996628;28;20032;-89
2023/12/01 01:29:47;;;;;;;88.93;24.45;;;0.00;99.90;;;;;;5015959;28;20021;-89
2023/12/01 01:32:12;;;;;;;90.47;22.83;;;0.00;99.90;;;;;;5011727;28;20386;-89
2023/12/01 01:34:39;;;;;;;89.20;24.58;;;0.00;99.90;;;;;;5014376;28;20033;-90
2023/12/01 01:37:04;;;;;;;85.20;22.90;;;0.00;99.90;;;;;;5014376;28;20029;-89
2023/12/01 01:39:30;;;;;;;91.88;24.20;;;0.00;99.90;;;;;;5024914;28;20507;-89
2023/12/01 01:41:56;;;;;;;88.70;22.52;;;0.00;99.90;;;;;;5037802;28;20025;-88
2023/12/01 01:44:22;;;;;;;90.68;21.80;;;0.00;99.90;;;;;;5022661;28;20029;-89
2023/12/01 01:46:50;;;;;;;80.30;20.67;;;0.00;99.90;;;;;;5016898;28;20026;-90
2023/12/01 01:49:21;;;;;;;95.55;25.60;;;0.00;99.90;;;;;;5004092;28;20033;-88
2023/12/01 01:51:49;;;;;;;90.07;23.55;;;0.00;99.90;;;;;;5040174;28;20116;-89
2023/12/01 01:54:15;;;;;;;91.13;24.45;;;-0.10;99.90;;;;;;5016808;28;20033;-89
2023/12/01 01:56:41;;;;;;;87.90;23.40;;;-0.10;99.90;;;;;;5025489;28;20025;-90
2023/12/01 01:59:07;;;;;;;98.28;24.50;;;0.00;99.90;;;;;;5012197;28;20033;-89
2023/12/01 02:01:32;;;;;;;99.10;25.58;;;-0.10;99.90;;;;;;5032126;28;20026;-90
2023/12/01 02:03:58;;;;;;;103.10;24.48;;;-0.10;99.90;;;;;;5014148;28;20024;-89
2023/12/01 02:06:30;;;;;;;80.30;21.42;;;-0.10;99.90;;;;;;5014326;28;20120;-89
2023/12/01 02:09:00;;;;;;;94.93;23.55;;;-0.10;99.90;;;;;;5019430;28;20022;-89
2023/12/01 02:11:26;;;;;;;90.63;23.80;;;-0.10;99.90;;;;;;5020475;28;20029;-89
2023/12/01 02:13:52;;;;;;;91.38;23.88;;;-0.10;99.90;;;;;;5011726;28;20060;-88
2023/12/01 02:16:18;;;;;;;94.30;24.52;;;-0.20;99.90;;;;;;5013222;28;20116;-90
2023/12/01 02:18:44;;;;;;;88.28;21.98;;;-0.20;99.90;;;;;;5024081;28;20080;-89
2023/12/01 02:21:10;;;;;;;84.63;21.38;;;-0.20;99.90;;;;;;5020790;28;20482;-89
2023/12/01 02:23:36;;;;;;;89.75;21.65;;;-0.20;99.90;;;;;;5030478;28;20104;-89
2023/12/01 02:26:02;;;;;;;96.10;23.65;;;-0.10;99.90;;;;;;5017561;28;20472;-89
2023/12/01 02:28:28;;;;;;;95.45;24.08;;;-0.10;99.90;;;;;;5003505;28;20030;-89
2023/12/01 02:30:55;;;;;;;89.93;22.80;;;-0.10;99.90;;;;;;5014099;28;20118;-89
2023/12/01 02:33:21;;;;;;;111.82;26.42;;;0.00;99.90;;;;;;5013710;28;20026;-89
2023/12/01 02:35:54;;;;;;;96.70;23.50;;;-0.10;99.90;;;;;;5001012;28;20080;-90
2023/12/01 02:38:20;;;;;;;103.03;25.00;;;0.00;99.90;;;;;;5012485;28;20046;-89
2023/12/01 02:40:49;;;;;;;118.47;26.42;;;-0.10;99.90;;;;;;5004591;28;20494;-89
2023/12/01 02:43:16;;;;;;;103.60;25.90;;;0.00;99.90;;;;;;5013844;28;20033;-89
2023/12/01 02:45:42;;;;;;;102.25;27.08;;;-0.10;99.90;;;;;;5039609;28;20052;-89
2023/12/01 02:48:08;;;;;;;112.70;25.77;;;0.00;99.90;;;;;;5013903;28;20025;-89
2023/12/01 02:50:34;;;;;;;115.15;27.70;;;-0.10;99.90;;;;;;5003906;28;20029;-90
2023/12/01 02:53:01;;;;;;;107.70;24.98;;;-0.10;99.90;;;;;;5009640;28;20033;-89
2023/12/01 02:55:27;;;;;;;110.57;25.52;;;-0.10;99.90;;;;;;5015167;28;20425;-89
2023/12/01 02:57:53;;;;;;;119.88;26.00;;;-0.20;99.90;;;;;;5041022;28;20033;-89
2023/12/01 03:00:19;;;;;;;126.95;27.90;;;-0.20;99.90;;;;;;5008394;28;20025;-89
2023/12/01 03:02:46;;;;;;;120.10;26.98;;;-0.20;99.90;;;;;;5016452;28;20025;-89
2023/12/01 03:05:11;;;;;;;117.57;25.65;;;-0.20;99.90;;;;;;5015528;28;20044;-89
2023/12/01 03:07:38;;;;;;;101.90;26.55;;;-0.10;99.90;;;;;;5021902;28;20026;-89
2023/12/01 03:10:05;;;;;;;106.90;26.27;;;-0.20;99.90;;;;;;5013521;28;20037;-89
2023/12/01 03:12:30;;;;;;;115.05;24.25;;;-0.20;99.90;;;;;;5013730;28;20030;-89
2023/12/01 03:14:58;;;;;;;108.68;26.05;;;-0.20;99.90;;;;;;5014829;28;20030;-89
2023/12/01 03:17:24;;;;;;;119.25;25.33;;;-0.20;99.90;;;;;;5014201;28;20516;-89
2023/12/01 03:19:51;;;;;;;116.25;25.33;;;-0.20;99.90;;;;;;5017635;28;20045;-90
2023/12/01 03:22:17;;;;;;;126.13;26.75;;;-0.20;99.90;;;;;;5011893;28;20057;-89
2023/12/01 03:24:45;;;;;;;114.30;29.00;;;-0.20;99.90;;;;;;5009622;28;20037;-89
2023/12/01 03:27:11;;;;;;;133.30;29.90;;;-0.20;99.90;;;;;;5024830;28;20039;-89
2023/12/01 03:29:38;;;;;;;107.72;27.75;;;-0.20;99.90;;;;;;5020495;28;20390;-89
2023/12/01 03:32:07;;;;;;;132.80;29.30;;;-0.10;99.90;;;;;;5026059;28;20033;-89
2023/12/01 03:34:33;;;;;;;145.65;32.10;;;-0.20;99.90;;;;;;5008137;28;20032;-89
2023/12/01 03:36:58;;;;;;;111.15;27.70;;;-0.10;99.90;;;;;;5015386;28;20022;-90
2023/12/01 03:39:25;;;;;;;126.55;30.83;;;-0.10;99.90;;;;;;5005111;28;20053;-89
2023/12/01 03:41:51;;;;;;;133.32;30.83;;;-0.10;99.90;;;;;;5008609;28;20100;-89
2023/12/01 03:44:17;;;;;;;133.60;29.73;;;-0.10;99.90;;;;;;5009755;28;20026;-89
2023/12/01 03:46:43;;;;;;;132.57;31.65;;;0.00;99.90;;;;;;5015902;28;20029;-90
2023/12/01 03:49:09;;;;;;;115.70;28.48;;;0.00;99.90;;;;;;5012535;28;20029;-89
2023/12/01 03:51:35;;;;;;;133.95;30.77;;;0.00;99.90;;;;;;5013640;28;20029;-89
2023/12/01 03:54:01;;;;;;;131.07;31.77;;;0.10;99.90;;;;;;5018423;28;20033;-88
2023/12/01 03:56:26;;;;;;;125.63;31.60;;;0.10;99.90;;;;;;5016338;28;20039;-89
2023/12/01 03:58:54;;;;;;;134.07;33.03;;;0.10;99.90;;;;;;5017920;28;20029;-90
2023/12/01 04:01:20;;;;;;;121.38;30.60;;;0.10;99.90;;;;;;5033820;28;20025;-90
2023/12/01 04:03:46;;;;;;;99.63;28.80;;;0.20;99.90;;;;;;5017125;28;20053;-89
2023/12/01 04:06:11;;;;;;;93.60;28.58;;;0.20;99.90;;;;;;5016493;28;20096;-89
2023/12/01 04:08:37;;;;;;;89.97;26.80;;;0.20;99.90;;;;;;5004260;28;20118;-90
2023/12/01 04:11:03;;;;;;;104.45;30.02;;;0.20;99.90;;;;;;5015487;28;20022;-90
2023/12/01 04:13:29;;;;;;;88.43;30.40;;;0.20;99.90;;;;;;5019494;28;20029;-89
2023/12/01 04:15:55;;;;;;;89.22;28.27;;;0.20;99.90;;;;;;5030158;28;20025;-89
2023/12/01 04:18:21;;;;;;;88.85;27.45;;;0.30;99.90;;;;;;5030614;28;20180;-90
2023/12/01 04:20:47;;;;;;;81.72;24.95;;;0.30;99.90;;;;;;5015066;28;20029;-89
2023/12/01 04:23:14;;;;;;;72.63;25.73;;;0.30;99.90;;;;;;5031863;28;20044;-90
2023/12/01 04:25:44;;;;;;;88.32;26.17;;;0.40;99.90;;;;;;5032019;28;20041;-90
2023/12/01 04:28:10;;;;;;;84.93;26.25;;;0.40;99.90;;;;;;5028909;28;20093;-90
2023/12/01 04:30:36;;;;;;;77.55;25.10;;;0.40;99.90;;;;;;5028372;28;20180;-90
2023/12/01 04:33:02;;;;;;;85.93;24.60;;;0.40;99.90;;;;;;5019235;28;20080;-89
2023/12/01 04:35:30;;;;;;;88.35;25.50;;;0.50;99.90;;;;;;5028853;28;20029;-90
2023/12/01 04:37:57;;;;;;;84.22;27.20;;;0.50;99.90;;;;;;5025190;28;20042;-89
2023/12/01 04:40:23;;;;;;;74.15;25.60;;;0.50;99.90;;;;;;5023194;28;20060;-90
2023/12/01 04:42:51;;;;;;;84.07;26.42;;;0.50;99.90;;;;;;5015429;28;20030;-89
2023/12/01 04:45:22;;;;;;;77.75;25.55;;;0.50;99.90;;;;;;5033254;28;20160;-90
2023/12/01 04:47:52;;;;;;;77.05;24.60;;;0.60;99.90;;;;;;5021923;28;20018;-89
2023/12/01 04:50:24;;;;;;;87.55;27.15;;;0.60;99.90;;;;;;5016284;28;20029;-90
2023/12/01 04:52:52;;;;;;;84.85;26.33;;;0.60;99.90;;;;;;5033636;28;20018;-90
2023/12/01 04:55:20;;;;;;;81.35;25.60;;;0.60;99.90;;;;;;5015780;28;20176;-90
2023/12/01 04:57:46;;;;;;;80.40;27.08;;;0.60;99.90;;;;;;5029000;28;20072;-89
2023/12/01 05:00:21;;;;;;;74.35;24.80;;;0.60;99.90;;;;;;5014140;28;20041;-89
2023/12/01 05:03:01;;;;;;;74.00;23.63;;;0.60;99.90;;;;;;5016257;28;20452;-89
2023/12/01 05:05:28;;;;;;;67.65;22.00;;;0.60;99.90;;;;;;5015884;28;20040;-90
2023/12/01 05:07:58;;;;;;;66.18;22.02;;;0.70;99.90;;;;;;5015891;28;20594;-90
2023/12/01 05:10:30;;;;;;;57.47;18.92;;;0.60;99.90;;;;;;5026453;28;20112;-89
2023/12/01 05:12:57;;;;;;;60.88;18.83;;;0.60;99.90;;;;;;5024846;28;20458;-89
2023/12/01 05:15:29;;;;;;;59.97;18.55;;;0.60;99.90;;;;;;5015811;28;20029;-89
2023/12/01 05:17:58;;;;;;;59.03;19.23;;;0.60;99.90;;;;;;5015779;28;20033;-89
2023/12/01 05:20:25;;;;;;;54.03;18.38;;;0.60;99.90;;;;;;5025295;28;20028;-89
2023/12/01 05:22:56;;;;;;;61.53;18.98;;;0.70;99.90;;;;;;5011777;28;20022;-89
2023/12/01 05:25:25;;;;;;;55.28;18.80;;;0.70;99.90;;;;;;5006029;28;20072;-90
2023/12/01 05:28:02;;;;;;;54.20;17.58;;;0.80;99.90;;;;;;5020556;28;20036;-89
2023/12/01 05:30:29;;;;;;;50.30;16.83;;;0.80;99.90;;;;;;5014948;28;20052;-89
2023/12/01 05:32:56;;;;;;;55.03;18.08;;;0.80;99.90;;;;;;5013635;28;20076;-88
2023/12/01 05:35:22;;;;;;;52.40;17.35;;;0.80;99.90;;;;;;5002964;28;20021;-88
2023/12/01 05:37:56;;;;;;;52.70;16.63;;;0.80;99.90;;;;;;5023664;28;20048;-89
2023/12/01 05:40:27;;;;;;;58.22;18.13;;;0.90;99.90;;;;;;5038969;28;20035;-89
2023/12/01 05:42:54;;;;;;;59.25;17.58;;;0.90;99.90;;;;;;5029086;28;20490;-89
2023/12/01 05:45:21;;;;;;;53.28;17.73;;;0.90;99.90;;;;;;5011960;28;20121;-88
2023/12/01 05:47:48;;;;;;;55.03;18.58;;;0.90;99.90;;;;;;5030208;28;20087;-89
2023/12/01 05:50:16;;;;;;;44.35;15.75;;;0.90;99.90;;;;;;5015168;28;20033;-89
2023/12/01 05:52:43;;;;;;;57.88;17.77;;;0.90;99.90;;;;;;5028195;28;20092;-89
2023/12/01 05:55:17;;;;;;;52.47;16.08;;;0.90;99.90;;;;;;5032815;28;20436;-89
2023/12/01 05:57:48;;;;;;;53.20;16.27;;;0.90;99.90;;;;;;5032066;28;20033;-89
2023/12/01 06:00:17;;;;;;;53.67;16.35;;;0.90;99.90;;;;;;5013556;28;20044;-89
2023/12/01 06:02:48;;;;;;;54.15;17.83;;;0.90;99.90;;;;;;5014800;28;20120;-89
2023/12/01 06:05:19;;;;;;;63.78;18.90;;;0.90;99.90;;;;;;5020864;28;20045;-89
2023/12/01 06:07:56;;;;;;;51.53;16.63;;;1.00;99.90;;;;;;5015619;28;20021;-89
2023/12/01 06:10:22;;;;;;;54.92;18.13;;;1.00;99.90;;;;;;5036758;28;20032;-89
2023/12/01 06:12:48;;;;;;;58.92;17.83;;;1.00;99.90;;;;;;5044188;28;20482;-88
2023/12/01 06:15:15;;;;;;;56.85;17.25;;;1.00;99.90;;;;;;5030206;28;20025;-88
2023/12/01 06:17:46;;;;;;;57.20;17.85;;;1.00;99.90;;;;;;5030154;28;20017;-89
2023/12/01 06:20:17;;;;;;;61.47;19.02;;;1.00;99.90;;;;;;5034194;28;20033;-89
2023/12/01 06:22:50;;;;;;;58.03;18.77;;;1.00;99.90;;;;;;5037923;28;20021;-89
2023/12/01 06:25:18;;;;;;;65.43;19.15;;;1.00;99.90;;;;;;4995182;28;20113;-89
2023/12/01 06:27:45;;;;;;;57.72;18.13;;;1.00;99.90;;;;;;5017310;28;20057;-90
2023/12/01 06:30:12;;;;;;;64.47;19.92;;;1.00;99.90;;;;;;5032685;28;20020;-90
2023/12/01 06:32:47;;;;;;;58.85;19.05;;;1.10;99.90;;;;;;5030438;28;20108;-90
2023/12/01 06:35:17;;;;;;;83.65;22.30;;;1.10;99.90;;;;;;5032969;28;20025;-90
2023/12/01 06:37:44;;;;;;;64.68;19.27;;;1.00;99.90;;;;;;5018468;28;20712;-90
2023/12/01 06:40:15;;;;;;;66.85;20.83;;;1.00;99.90;;;;;;5017686;28;20079;-89
2023/12/01 06:42:55;;;;;;;62.92;22.05;;;1.00;99.90;;;;;;5017233;28;20417;-90
2023/12/01 06:45:23;;;;;;;65.47;20.73;;;1.10;99.90;;;;;;5017882;28;20048;-90
2023/12/01 06:47:50;;;;;;;66.20;18.48;;;1.00;99.90;;;;;;5015955;28;20397;-90
2023/12/01 06:50:17;;;;;;;66.88;20.98;;;1.00;99.90;;;;;;5032881;28;20029;-90
2023/12/01 06:52:47;;;;;;;67.25;21.33;;;1.00;99.90;;;;;;5016773;28;20385;-91
2023/12/01 06:55:13;;;;;;;64.30;20.90;;;1.00;99.90;;;;;;5036794;28;20026;-90
2023/12/01 06:57:42;;;;;;;75.43;23.80;;;1.00;99.90;;;;;;5032720;28;20028;-91
2023/12/01 07:00:09;;;;;;;73.47;21.33;;;1.00;99.90;;;;;;5018986;28;20429;-89
2023/12/01 07:02:38;;;;;;;72.45;22.00;;;1.00;99.90;;;;;;5015657;28;20057;-90
2023/12/01 07:05:19;;;;;;;73.32;22.13;;;1.00;99.90;;;;;;5009502;28;20029;-89
2023/12/01 07:07:45;;;;;;;74.68;23.33;;;1.00;99.90;;;;;;5030543;28;20041;-90
2023/12/01 07:10:10;;;;;;;84.68;24.60;;;1.00;99.90;;;;;;5008190;28;20057;-89
2023/12/01 07:12:36;;;;;;;89.82;25.35;;;1.00;99.90;;;;;;5018164;28;20025;-91
2023/12/01 07:15:02;;;;;;;75.30;22.52;;;1.00;99.90;;;;;;5011466;28;20022;-91
2023/12/01 07:17:29;;;;;;;94.60;26.73;;;1.00;99.90;;;;;;5015318;28;20025;-90
2023/12/01 07:19:55;;;;;;;87.97;24.90;;;1.00;99.90;;;;;;5017817;28;20481;-90
2023/12/01 07:22:22;;;;;;;97.15;27.33;;;1.00;99.90;;;;;;5017248;28;20026;-89
2023/12/01 07:24:48;;;;;;;108.25;29.42;;;1.10;99.90;;;;;;5017559;28;20377;-90
2023/12/01 07:27:14;;;;;;;99.72;27.30;;;1.00;99.90;;;;;;5032568;28;20083;-90
2023/12/01 07:29:40;;;;;;;97.57;28.08;;;1.10;99.90;;;;;;5012817;28;20125;-90
2023/12/01 07:32:07;;;;;;;91.40;25.55;;;1.00;99.90;;;;;;5003164;28;20018;-89
2023/12/01 07:34:33;;;;;;;94.30;27.08;;;1.10;99.90;;;;;;5020745;28;20021;-89
2023/12/01 07:36:58;;;;;;;98.53;27.92;;;1.00;99.90;;;;;;5019323;28;20378;-90
2023/12/01 07:39:24;;;;;;;99.82;26.83;;;1.00;99.90;;;;;;5017322;28;20049;-90
2023/12/01 07:41:50;;;;;;;92.07;26.42;;;1.00;99.90;;;;;;5017298;28;20033;-90
2023/12/01 07:44:16;;;;;;;103.93;28.13;;;1.00;99.90;;;;;;5049566;28;20104;-89
2023/12/01 07:46:41;;;;;;;97.50;27.25;;;1.10;99.90;;;;;;5020784;28;20120;-88
2023/12/01 07:49:11;;;;;;;97.55;29.05;;;1.10;99.90;;;;;;5012408;28;20026;-91
2023/12/01 07:51:37;;;;;;;88.43;24.73;;;1.10;99.90;;;;;;5016486;28;20079;-90
2023/12/01 07:54:03;;;;;;;73.22;21.77;;;1.10;99.90;;;;;;5017788;28;20390;-90
2023/12/01 07:56:28;;;;;;;67.53;21.88;;;1.10;99.90;;;;;;5036839;28;20111;-90
2023/12/01 07:58:54;;;;;;;64.32;20.15;;;1.00;99.90;;;;;;5037609;28;20028;-90
2023/12/01 08:01:19;;;;;;;53.92;17.98;;;1.00;99.90;;;;;;5028838;28;20124;-90
2023/12/01 08:03:46;;;;;;;46.63;14.65;;;1.00;99.90;;;;;;5017210;28;20060;-90
2023/12/01 08:06:13;;;;;;;50.05;15.57;;;1.00;99.90;;;;;;5011615;28;20054;-90
2023/12/01 08:08:39;;;;;;;46.08;16.20;;;1.00;99.90;;;;;;5009025;28;20030;-90
2023/12/01 08:11:05;;;;;;;47.90;16.00;;;1.00;99.90;;;;;;5016983;28;20080;-90
2023/12/01 08:13:31;;;;;;;46.67;15.85;;;1.00;99.90;;;;;;5016965;28;20429;-89
2023/12/01 08:15:56;;;;;;;46.47;15.82;;;0.90;99.90;;;;;;5017048;28;20055;-91
2023/12/01 08:18:22;;;;;;;43.47;14.43;;;0.90;99.90;;;;;;5017479;28;20017;-90
2023/12/01 08:20:49;;;;;;;43.88;14.68;;;1.00;99.90;;;;;;5017140;28;20025;-90
2023/12/01 08:23:15;;;;;;;44.92;15.38;;;0.90;99.90;;;;;;5016853;28;20021;-91
2023/12/01 08:25:42;;;;;;;41.80;13.68;;;0.90;99.90;;;;;;5016875;28;20091;-91
2023/12/01 08:28:07;;;;;;;42.53;15.13;;;0.80;99.90;;;;;;5013629;28;20030;-90
2023/12/01 08:30:33;;;;;;;44.58;14.35;;;0.80;99.90;;;;;;4997170;28;20057;-90
2023/12/01 08:32:58;;;;;;;36.60;12.45;;;0.80;99.90;;;;;;5013773;28;20026;-90
2023/12/01 08:35:24;;;;;;;41.38;14.68;;;0.80;99.90;;;;;;5013327;28;20068;-91
2023/12/01 08:37:51;;;;;;;39.53;14.02;;;0.80;99.90;;;;;;5013373;28;20053;-89
2023/12/01 08:40:16;;;;;;;41.85;15.43;;;0.80;99.90;;;;;;5013050;28;20386;-90
2023/12/01 08:42:42;;;;;;;44.08;15.30;;;0.80;99.90;;;;;;5016720;28;20048;-91
2023/12/01 08:45:09;;;;;;;36.63;13.00;;;0.80;99.90;;;;;;5016036;28;20485;-90
2023/12/01 08:47:35;;;;;;;41.38;14.10;;;0.70;99.90;;;;;;5008710;28;20445;-90
2023/12/01 08:50:01;;;;;;;38.53;14.05;;;0.70;99.90;;;;;;5012909;28;20026;-90
2023/12/01 08:52:26;;;;;;;42.63;14.32;;;0.70;99.90;;;;;;5006224;28;20226;-90
2023/12/01 08:54:52;;;;;;;40.00;14.07;;;0.70;99.90;;;;;;5016486;28;20038;-89
2023/12/01 08:57:18;;;;;;;38.58;13.80;;;0.80;99.90;;;;;;5016296;28;20075;-89
2023/12/01 08:59:43;;;;;;;33.67;13.73;;;0.70;99.90;;;;;;5015839;28;20036;-91
2023/12/01 09:02:09;;;;;;;36.40;13.80;;;0.70;99.90;;;;;;5016077;28;20057;-90
2023/12/01 09:04:35;;;;;;;40.63;13.55;;;0.70;99.90;;;;;;5011956;28;20033;-90
2023/12/01 09:07:01;;;;;;;41.67;14.07;;;0.70;99.90;;;;;;4996441;28;20033;-91
2023/12/01 09:09:27;;;;;;;40.63;15.52;;;0.70;99.90;;;;;;4999874;28;20076;-90
2023/12/01 09:11:53;;;;;;;37.63;13.13;;;0.70;99.90;;;;;;5016154;28;20030;-91
2023/12/01 09:14:19;;;;;;;38.28;14.45;;;0.80;99.90;;;;;;4998161;28;20113;-89
2023/12/01 09:16:45;;;;;;;36.55;14.07;;;0.80;99.90;;;;;;5015958;28;20057;-89
2023/12/01 09:19:10;;;;;;;40.88;14.18;;;0.80;99.90;;;;;;5015587;28;20024;-90
2023/12/01 09:21:36;;;;;;;36.53;13.38;;;0.80;99.90;;;;;;5033698;28;20417;-90
2023/12/01 09:24:02;;;;;;;42.78;15.55;;;0.80;99.90;;;;;;5033692;28;20022;-90
2023/12/01 09:26:31;;;;;;;43.30;15.38;;;0.80;99.90;;;;;;5014676;28;20049;-90
2023/12/01 09:28:57;;;;;;;43.92;16.40;;;0.80;99.90;;;;;;5015836;28;20022;-90
2023/12/01 09:31:23;;;;;;;39.83;15.18;;;0.80;99.90;;;;;;5015410;28;20022;-90
2023/12/01 09:33:48;;;;;;;42.75;15.23;;;0.80;99.90;;;;;;5015986;28;20060;-90
2023/12/01 09:36:17;;;;;;;38.55;14.88;;;0.70;99.90;;;;;;5015538;28;20029;-90
2023/12/01 09:38:49;;;;;;;39.55;14.43;;;0.70;99.90;;;;;;5015827;28;20068;-90
2023/12/01 09:41:18;;;;;;;37.72;13.85;;;0.80;99.90;;;;;;5015597;28;20026;-91
2023/12/01 09:43:44;;;;;;;36.58;13.35;;;0.80;99.90;;;;;;5015634;28;20026;-90
2023/12/01 09:46:14;;;;;;;40.50;15.50;;;0.80;99.90;;;;;;5013700;28;20037;-90
2023/12/01 09:48:41;;;;;;;38.28;12.43;;;0.70;99.90;;;;;;5032819;28;20018;-91
2023/12/01 09:51:07;;;;;;;38.17;14.10;;;0.80;99.90;;;;;;5015650;28;20021;-90
2023/12/01 09:53:34;;;;;;;39.88;13.52;;;0.80;99.90;;;;;;5015681;28;20035;-91
2023/12/01 09:56:00;;;;;;;32.67;12.23;;;0.80;99.90;;;;;;5032663;28;20033;-91
2023/12/01 09:58:28;;;;;;;39.55;13.25;;;0.70;99.90;;;;;;5015258;28;20113;-91
2023/12/01 10:00:54;;;;;;;34.38;12.10;;;0.70;99.90;;;;;;5015561;28;20499;-92
2023/12/01 10:03:19;;;;;;;35.17;12.90;;;0.70;99.90;;;;;;5030517;28;20108;-91
2023/12/01 10:05:45;;;;;;;34.83;12.55;;;0.70;99.90;;;;;;5016202;28;20052;-91
2023/12/01 10:08:11;;;;;;;38.05;13.20;;;0.70;99.90;;;;;;5015286;28;20029;-91
2023/12/01 10:10:38;;;;;;;33.33;11.45;;;0.70;99.90;;;;;;5014980;28;20117;-90
2023/12/01 10:13:05;;;;;;;38.58;13.60;;;0.80;99.90;;;;;;5015375;28;20120;-91
2023/12/01 10:15:32;;;;;;;37.58;12.60;;;0.80;99.90;;;;;;5016878;28;20076;-92
2023/12/01 10:18:16;;;;;;;41.25;13.18;;;0.80;99.90;;;;;;5033932;28;20060;-91
2023/12/01 10:20:58;;;;;;;39.00;13.73;;;0.90;99.90;;;;;;5019521;28;20555;-91
2023/12/01 10:23:24;;;;;;;37.95;13.10;;;0.90;99.90;;;;;;5018971;28;20037;-91
2023/12/01 10:25:51;;;;;;;32.63;12.10;;;0.90;99.90;;;;;;5015619;28;20498;-90
2023/12/01 10:28:17;;;;;;;34.38;11.68;;;0.90;99.90;;;;;;5014363;28;20022;-90
2023/12/01 10:30:55;;;;;;;34.67;12.85;;;0.90;99.90;;;;;;4999982;28;20037;-90
2023/12/01 10:33:22;;;;;;;33.72;12.35;;;0.80;99.90;;;;;;4999112;28;20486;-91
2023/12/01 10:36:07;;;;;;;35.55;13.05;;;0.70;99.90;;;;;;4999482;28;20494;-89
2023/12/01 10:38:35;;;;;;;35.25;12.00;;;0.70;99.90;;;;;;4999243;28;20494;-90
2023/12/01 10:41:05;;;;;;;36.38;11.70;;;0.70;99.90;;;;;;5002809;28;20845;-90
2023/12/01 10:43:32;;;;;;;28.95;11.05;;;0.80;99.90;;;;;;5019143;28;20109;-90
2023/12/01 10:46:07;;;;;;;40.58;12.40;;;0.90;99.90;;;;;;5018666;28;20041;-89
2023/12/01 10:48:34;;;;;;;31.60;12.23;;;0.90;99.90;;;;;;5015542;28;20045;-90
2023/12/01 10:51:03;;;;;;;32.70;12.65;;;1.00;99.90;;;;;;5017406;28;20034;-90
2023/12/01 10:53:29;;;;;;;38.17;13.05;;;1.00;99.90;;;;;;5035239;28;20025;-89
2023/12/01 10:55:59;;;;;;;37.53;13.30;;;1.00;99.90;;;;;;5018820;28;20068;-90
2023/12/01 10:58:25;;;;;;;39.92;14.43;;;1.00;99.90;;;;;;5018547;28;20117;-90
2023/12/01 11:00:53;;;;;;;39.65;13.15;;;1.10;99.90;;;;;;5035929;28;20065;-90
2023/12/01 11:03:23;;;;;;;42.40;13.38;;;1.10;99.90;;;;;;5018118;28;20021;-90
2023/12/01 11:06:01;;;;;;;34.90;12.40;;;1.10;99.90;;;;;;5013705;28;20030;-90
2023/12/01 11:08:52;;;;;;;35.00;12.38;;;1.10;99.90;;;;;;5014969;28;20026;-90
2023/12/01 11:11:32;;;;;;;36.42;12.52;;;1.10;99.90;;;;;;5015756;28;20382;-90
2023/12/01 11:14:21;;;;;;;32.42;11.77;;;1.00;99.90;;;;;;5015149;28;20117;-90
2023/12/01 11:16:47;;;;;;;39.45;15.07;;;1.00;99.90;;;;;;5015975;28;20587;-90
2023/12/01 11:19:15;;;;;;;39.60;14.23;;;1.00;99.90;;;;;;5014952;28;20113;-91
2023/12/01 11:21:44;;;;;;;33.88;12.57;;;1.00;99.90;;;;;;5017603;28;20021;-90
2023/12/01 11:24:31;;;;;;;34.25;12.15;;;1.00;99.90;;;;;;5014533;28;20021;-90
2023/12/01 11:27:07;;;;;;;33.20;13.10;;;1.10;99.90;;;;;;4997442;28;20528;-90
2023/12/01 11:29:35;;;;;;;42.38;13.52;;;1.20;99.90;;;;;;5017030;28;20116;-90
2023/12/01 11:32:03;;;;;;;36.75;12.80;;;1.20;99.90;;;;;;5018215;28;20112;-90
2023/12/01 11:34:29;;;;;;;35.20;13.82;;;1.20;99.90;;;;;;5017621;28;20021;-90
2023/12/01 11:36:54;;;;;;;38.20;15.10;;;1.10;99.90;;;;;;5017922;28;20045;-89
2023/12/01 11:39:29;;;;;;;39.08;14.13;;;1.20;99.90;;;;;;5017497;28;20046;-90
2023/12/01 11:41:58;;;;;;;39.53;14.68;;;1.20;99.90;;;;;;5017842;28;20029;-90
2023/12/01 11:44:26;;;;;;;39.15;12.52;;;1.20;99.90;;;;;;5035100;28;20088;-90
2023/12/01 11:47:00;;;;;;;39.88;14.27;;;1.10;99.90;;;;;;5035619;28;20396;-90
2023/12/01 11:49:31;;;;;;;39.67;13.27;;;1.10;99.90;;;;;;5016761;28;20028;-90
2023/12/01 11:52:01;;;;;;;33.90;12.63;;;1.10;99.90;;;;;;5035153;28;20022;-90
2023/12/01 11:54:27;;;;;;;30.77;12.48;;;1.10;99.90;;;;;;5017384;28;20029;-90
2023/12/01 11:56:57;;;;;;;35.28;12.20;;;1.10;99.90;;;;;;5034992;28;20025;-90
2023/12/01 11:59:24;;;;;;;34.33;12.30;;;1.10;99.90;;;;;;5034825;28;20069;-90
2023/12/01 12:01:53;;;;;;;32.00;12.48;;;1.10;99.90;;;;;;5016716;28;20032;-89
2023/12/01 12:04:19;;;;;;;28.95;11.93;;;1.00;99.90;;;;;;5017072;28;20037;-90
2023/12/01 12:06:45;;;;;;;29.80;11.82;;;0.90;99.90;;;;;;5034794;28;20037;-90
2023/12/01 12:09:17;;;;;;;33.85;11.50;;;1.00;99.90;;;;;;5017440;28;20477;-90
2023/12/01 12:11:48;;;;;;;31.90;12.05;;;1.00;99.90;;;;;;5017560;28;20034;-90
2023/12/01 12:14:15;;;;;;;32.45;12.13;;;1.00;99.90;;;;;;5016871;28;20025;-89
2023/12/01 12:16:40;;;;;;;33.95;12.82;;;1.00;99.90;;;;;;5034911;28;20517;-90
2023/12/01 12:19:06;;;;;;;34.20;11.55;;;1.00;99.90;;;;;;5017181;28;20060;-89
2023/12/01 12:21:33;;;;;;;36.33;12.40;;;1.00;99.90;;;;;;5016506;28;20057;-90
2023/12/01 12:23:59;;;;;;;30.70;11.43;;;0.90;99.90;;;;;;5034286;28;20025;-90
2023/12/01 12:26:28;;;;;;;37.92;14.00;;;1.00;99.90;;;;;;5016761;28;20033;-90
2023/12/01 12:28:59;;;;;;;32.97;11.30;;;1.00;99.90;;;;;;5015703;28;20034;-90
2023/12/01 12:31:36;;;;;;;36.22;12.55;;;1.00;99.90;;;;;;5013058;28;20393;-90
2023/12/01 12:34:06;;;;;;;29.77;11.05;;;0.90;99.90;;;;;;5016761;28;20596;-89
2023/12/01 12:36:34;;;;;;;31.75;11.35;;;0.90;99.90;;;;;;5016842;28;20037;-90